Capron, IL

1:51 PM CDT on August 27, 2016 (GMT -0500)
Suburban Capron | | Change Station

Elev 925 ft 42.40 °N, 88.75 °W | Updated 15 seconds ago

Overcast
Overcast
77.7 °F
Feels Like 80 °F
N
5.4
Wind Variable Wind from SSW
Gusts 12.0 mph

Today
High -- | Low -- °F
--% Chance of Precip.
Yesterday
High -- | Low -- °F
Precip. -- in
Pressure 30.01 in
Visibility 10.0 miles
Clouds Scattered Clouds 1800 ft
Mostly Cloudy 4000 ft
Overcast 5000 ft
Heat Index 80 °F
Dew Point 71 °F
Humidity 79%
Rainfall 0.05 in
Snow Depth Not available.
6:15 AM 7:36 PM
Waning Crescent, 22% visible
METAR KJVL 271845Z 21005KT 10SM SCT018 BKN040 OVC050 26/21 A3001
Pressure 30.01 in
Visibility 10.0 miles
Clouds Scattered Clouds 1800 ft
Mostly Cloudy 4000 ft
Overcast 5000 ft
Heat Index 80 °F
Dew Point 71 °F
Humidity 79%
Rainfall 0.05 in
Snow Depth Not available.
6:15 AM 7:36 PM
Waning Crescent, 22% visible
METAR KJVL 271845Z 21005KT 10SM SCT018 BKN040 OVC050 26/21 A3001

10-Day Weather Forecast

Almanac

Astronomy

Aug. 27, 2016 Rise Set
Actual Time
Civil Twilight
Nautical Twilight
Astronomical Twilight
Moon
Length of Visible Light
Length of Day
Tomorrow will be .
, % of the Moon is Illuminated

Today's Extremes

State Highs State Lows

Community

WunderPhotos

Upload Photos

1,935,399 photos uploaded!

WunderBlog® & News

Nearby

Air Quality

  Air Quality AQ Index Pollutant
Not available.

Snow Depth

Station Depth Elevation

Earthquake Activity

City Distance Mag. Time & Date
Minimum magnitude displayed is 2.5.

Coastal Water Temperatures

Place Temperature

Stations

Nearby Weather Stations

Station Location Temp. Windchill Dew Point Humidity Wind Precip. Elev Updated Type
                   

Watches & Warnings

There are currently no watches in effect.